createdAt,value
2024-03-13T00:01:57.336Z,36.10
2024-03-13T00:04:42.953Z,35.17
2024-03-13T00:07:28.425Z,35.87
2024-03-13T00:10:13.859Z,36.00
2024-03-13T00:12:59.261Z,34.90
2024-03-13T00:15:44.288Z,34.90
2024-03-13T00:18:29.705Z,34.70
2024-03-13T00:21:14.694Z,33.03
2024-03-13T00:24:00.068Z,31.60
2024-03-13T00:26:45.021Z,32.30
2024-03-13T00:29:29.901Z,32.93
2024-03-13T00:32:15.978Z,31.87
2024-03-13T00:35:01.086Z,32.73
2024-03-13T00:37:45.976Z,31.50
2024-03-13T00:40:30.965Z,31.90
2024-03-13T00:43:15.991Z,32.50
2024-03-13T00:46:01.177Z,31.87
2024-03-13T00:48:46.395Z,32.47
2024-03-13T00:51:31.436Z,33.17
2024-03-13T00:54:17.321Z,32.17
2024-03-13T00:57:02.432Z,32.83
2024-03-13T00:59:47.428Z,32.20
2024-03-13T01:02:32.582Z,30.83
2024-03-13T01:05:17.477Z,31.37
2024-03-13T01:08:02.314Z,32.03
2024-03-13T01:10:47.174Z,32.57
2024-03-13T01:13:32.248Z,34.10
2024-03-13T01:16:17.527Z,33.03
2024-03-13T01:19:02.590Z,33.07
2024-03-13T01:21:48.509Z,33.07
2024-03-13T01:24:33.404Z,32.93
2024-03-13T01:27:18.491Z,32.77
2024-03-13T01:30:04.651Z,33.10
2024-03-13T01:32:49.887Z,32.73
2024-03-13T01:35:34.880Z,31.73
2024-03-13T01:38:19.853Z,32.00
2024-03-13T01:41:04.651Z,32.33
2024-03-13T01:43:57.055Z,30.90
2024-03-13T01:46:42.480Z,30.80
2024-03-13T01:49:28.062Z,30.47
2024-03-13T01:52:17.184Z,29.77
2024-03-13T01:55:08.923Z,29.90
2024-03-13T01:57:54.217Z,30.40
2024-03-13T02:00:39.416Z,30.60
2024-03-13T02:03:24.667Z,31.23
2024-03-13T02:06:09.645Z,31.33
2024-03-13T02:08:54.865Z,29.43
2024-03-13T02:11:40.015Z,30.27
2024-03-13T02:14:25.453Z,30.83
2024-03-13T02:17:10.840Z,31.43
2024-03-13T02:19:57.078Z,29.07
2024-03-13T02:22:42.447Z,29.83
2024-03-13T02:25:27.497Z,30.57
2024-03-13T02:28:12.418Z,29.43
2024-03-13T02:30:57.368Z,31.57
2024-03-13T02:33:42.139Z,30.53
2024-03-13T02:36:27.002Z,31.67
2024-03-13T02:39:12.327Z,30.67
2024-03-13T02:41:57.311Z,29.67
2024-03-13T02:44:42.160Z,28.23
2024-03-13T02:47:27.149Z,30.77
2024-03-13T02:50:12.685Z,28.43
2024-03-13T02:52:57.507Z,29.83
2024-03-13T02:55:42.549Z,28.77
2024-03-13T02:58:27.613Z,29.30
2024-03-13T03:01:13.702Z,30.20
2024-03-13T03:03:58.993Z,30.67
2024-03-13T03:06:43.852Z,28.73
2024-03-13T03:09:28.803Z,27.77
2024-03-13T03:12:13.661Z,27.97
2024-03-13T03:14:58.619Z,28.73
2024-03-13T03:17:43.558Z,28.27
2024-03-13T03:20:28.550Z,28.43
2024-03-13T03:23:13.324Z,27.57
2024-03-13T03:25:58.314Z,28.33
2024-03-13T03:28:43.218Z,27.23
2024-03-13T03:31:28.218Z,26.90
2024-03-13T03:34:13.610Z,28.50
2024-03-13T03:36:58.621Z,27.80
2024-03-13T03:39:43.579Z,27.80
2024-03-13T03:42:28.787Z,27.17
2024-03-13T03:45:13.767Z,28.10
2024-03-13T03:48:04.795Z,27.97
2024-03-13T03:50:55.623Z,27.57
2024-03-13T03:53:40.561Z,29.23
2024-03-13T03:56:25.694Z,28.83
2024-03-13T03:59:10.639Z,29.30
2024-03-13T04:01:55.704Z,29.47
2024-03-13T04:04:41.088Z,28.23
2024-03-13T04:07:25.996Z,28.17
2024-03-13T04:10:11.002Z,28.97
2024-03-13T04:12:55.978Z,28.03
2024-03-13T04:15:41.101Z,28.37
2024-03-13T04:18:25.920Z,27.77
2024-03-13T04:21:11.211Z,27.67
2024-03-13T04:23:56.276Z,26.77
2024-03-13T04:26:41.443Z,25.50
2024-03-13T04:29:32.113Z,26.20
2024-03-13T04:32:23.955Z,25.93
2024-03-13T04:35:09.384Z,26.37
2024-03-13T04:37:54.299Z,25.07
2024-03-13T04:40:39.704Z,26.30
2024-03-13T04:43:24.858Z,25.27
2024-03-13T04:46:17.202Z,26.43
2024-03-13T04:49:02.340Z,24.80
2024-03-13T04:51:47.484Z,25.73
2024-03-13T04:54:32.461Z,25.83
2024-03-13T04:57:17.339Z,25.07
2024-03-13T05:00:02.450Z,24.03
2024-03-13T05:02:47.554Z,24.83
2024-03-13T05:05:32.281Z,24.97
2024-03-13T05:08:17.269Z,23.33
2024-03-13T05:11:02.165Z,23.97
2024-03-13T05:13:47.200Z,22.90
2024-03-13T05:16:32.674Z,22.93
2024-03-13T05:19:17.970Z,22.07
2024-03-13T05:22:02.978Z,21.70
2024-03-13T05:24:47.901Z,22.77
2024-03-13T05:27:32.776Z,21.43
2024-03-13T05:30:18.047Z,21.70
2024-03-13T05:33:03.299Z,21.50
2024-03-13T05:35:48.132Z,22.00
2024-03-13T05:38:33.134Z,21.33
2024-03-13T05:41:17.972Z,20.77
2024-03-13T05:44:02.808Z,21.17
2024-03-13T05:46:47.898Z,18.97
2024-03-13T05:49:32.827Z,19.83
2024-03-13T05:52:17.708Z,17.93
2024-03-13T05:55:02.699Z,18.17
2024-03-13T05:57:47.974Z,18.53
2024-03-13T06:00:33.143Z,18.20
2024-03-13T06:03:18.242Z,17.43
2024-03-13T06:06:03.406Z,17.20
2024-03-13T06:08:48.588Z,19.00
2024-03-13T06:11:33.617Z,17.63
2024-03-13T06:14:19.010Z,16.53
2024-03-13T06:17:03.999Z,17.10
2024-03-13T06:19:49.024Z,16.70
2024-03-13T06:22:33.997Z,16.67
2024-03-13T06:25:19.372Z,16.47
2024-03-13T06:28:04.473Z,17.20
2024-03-13T06:30:49.492Z,16.67
2024-03-13T06:33:34.569Z,19.70
2024-03-13T06:36:19.794Z,16.90
2024-03-13T06:39:04.723Z,15.97
2024-03-13T06:41:49.553Z,18.03
2024-03-13T06:44:34.501Z,18.80
2024-03-13T06:47:19.381Z,17.17
2024-03-13T06:50:04.867Z,17.87
2024-03-13T06:52:49.680Z,16.70
2024-03-13T06:55:34.657Z,15.47
2024-03-13T06:58:19.932Z,15.47
2024-03-13T07:01:14.515Z,13.80
2024-03-13T07:04:00.011Z,14.83
2024-03-13T07:06:45.763Z,15.60
2024-03-13T07:09:30.912Z,15.10
2024-03-13T07:12:16.703Z,15.83
2024-03-13T07:15:01.865Z,15.40
2024-03-13T07:17:46.851Z,15.10
2024-03-13T07:20:32.242Z,15.03
2024-03-13T07:23:17.584Z,15.47
2024-03-13T07:26:02.536Z,15.97
2024-03-13T07:28:47.394Z,15.27
2024-03-13T07:31:32.397Z,14.57
2024-03-13T07:34:17.357Z,14.87
2024-03-13T07:37:02.312Z,14.20
2024-03-13T07:39:47.301Z,14.30
2024-03-13T07:42:33.105Z,14.27
2024-03-13T07:45:18.450Z,13.87
2024-03-13T07:48:03.427Z,14.20
2024-03-13T07:50:48.637Z,14.63
2024-03-13T07:53:34.309Z,13.93
2024-03-13T07:56:19.439Z,14.67
2024-03-13T07:59:05.168Z,14.60
2024-03-13T08:01:50.345Z,14.67
2024-03-13T08:04:35.817Z,14.93
2024-03-13T09:08:30.787Z,13.20
2024-03-13T09:11:24.606Z,14.37
2024-03-13T09:14:09.401Z,14.20
2024-03-13T09:16:54.351Z,13.97
2024-03-13T09:19:39.313Z,12.50
2024-03-13T09:22:24.178Z,12.10
2024-03-13T09:25:09.120Z,12.97
2024-03-13T09:27:54.087Z,12.93
2024-03-13T09:30:39.031Z,13.03
2024-03-13T09:33:24.022Z,13.13
2024-03-13T09:36:15.565Z,12.83
2024-03-13T09:39:00.963Z,12.77
2024-03-13T09:41:48.210Z,12.33
2024-03-13T09:44:33.649Z,12.80
2024-03-13T09:47:20.198Z,12.93
2024-03-13T09:50:06.946Z,11.53
2024-03-13T09:52:56.532Z,12.37
2024-03-13T09:55:42.093Z,13.03
2024-03-13T09:58:27.344Z,13.13
2024-03-13T10:01:21.486Z,12.83
2024-03-13T10:04:10.152Z,12.73
2024-03-13T10:06:59.886Z,13.60
2024-03-13T10:09:47.350Z,13.97
2024-03-13T10:12:33.399Z,14.17
2024-03-13T10:15:20.168Z,13.10
2024-03-13T10:18:16.337Z,13.10
2024-03-13T10:21:24.427Z,13.70
2024-03-13T10:24:11.100Z,13.30
2024-03-13T10:26:57.747Z,14.60
2024-03-13T10:29:44.074Z,13.10
2024-03-13T10:32:29.443Z,13.77
2024-03-13T10:35:14.285Z,14.40
2024-03-13T10:37:59.221Z,13.87
2024-03-13T10:40:44.188Z,13.17
2024-03-13T10:43:29.556Z,14.00
2024-03-13T10:46:14.492Z,13.60
2024-03-13T10:49:00.931Z,13.23
2024-03-13T10:51:46.425Z,12.93
2024-03-13T10:54:31.169Z,13.43
2024-03-13T10:57:19.468Z,13.17
2024-03-13T11:00:12.177Z,13.23
2024-03-13T11:02:57.404Z,13.17
2024-03-13T11:05:42.760Z,13.33
2024-03-13T11:08:28.181Z,13.77
2024-03-13T11:11:20.483Z,13.23
2024-03-13T11:14:11.072Z,12.13
2024-03-13T11:16:58.363Z,13.37
2024-03-13T11:19:43.748Z,13.20
2024-03-13T11:22:32.539Z,12.53
2024-03-13T11:25:18.837Z,12.97
2024-03-13T11:28:08.965Z,12.07
2024-03-13T11:30:54.634Z,12.27
2024-03-13T11:33:40.295Z,12.00
2024-03-13T11:36:26.773Z,12.83
2024-03-13T11:39:12.161Z,12.17
2024-03-13T11:42:07.140Z,11.50
2024-03-13T11:45:13.074Z,11.50
2024-03-13T11:48:00.940Z,11.70
2024-03-13T11:51:01.610Z,11.67
2024-03-13T11:53:47.070Z,12.30
2024-03-13T11:56:32.894Z,12.57
2024-03-13T11:59:18.298Z,12.37
2024-03-13T12:02:03.459Z,13.00
2024-03-13T12:04:48.333Z,13.43
2024-03-13T12:07:40.135Z,14.20
2024-03-13T12:10:26.182Z,14.10
2024-03-13T12:13:15.536Z,14.20
2024-03-13T12:16:00.603Z,15.27
2024-03-13T12:18:45.824Z,16.57
2024-03-13T12:21:30.965Z,16.27
2024-03-13T12:24:15.975Z,15.80
2024-03-13T12:27:00.843Z,18.50
2024-03-13T12:29:45.821Z,18.97
2024-03-13T12:32:30.866Z,19.27
2024-03-13T12:35:15.710Z,19.05
2024-03-13T12:38:00.638Z,19.17
2024-03-13T12:40:46.601Z,18.40
2024-03-13T12:43:31.562Z,19.33
2024-03-13T12:46:17.255Z,19.90
2024-03-13T12:49:02.498Z,20.13
2024-03-13T12:51:52.673Z,20.30
2024-03-13T12:54:37.917Z,21.20
2024-03-13T12:57:22.812Z,19.73
2024-03-13T13:00:10.073Z,19.57
2024-03-13T13:02:55.625Z,20.90
2024-03-13T13:05:42.091Z,21.25
2024-03-13T13:08:29.610Z,19.97
2024-03-13T13:11:14.537Z,20.40
2024-03-13T13:13:59.509Z,20.33
2024-03-13T13:16:44.537Z,21.43
2024-03-13T13:19:29.881Z,22.73
2024-03-13T13:22:14.777Z,24.33
2024-03-13T13:24:59.681Z,26.57
2024-03-13T13:27:45.001Z,25.63
2024-03-13T13:30:30.219Z,26.27
2024-03-13T13:33:15.790Z,26.97
2024-03-13T13:36:01.568Z,26.37
2024-03-13T13:38:46.726Z,28.07
2024-03-13T13:41:31.745Z,27.70
2024-03-13T13:44:16.571Z,26.47
2024-03-13T13:47:01.433Z,29.00
2024-03-13T13:49:46.252Z,26.97
2024-03-13T13:52:31.243Z,28.43
2024-03-13T13:55:17.593Z,29.43
2024-03-13T13:58:03.693Z,30.13
2024-03-13T14:00:48.540Z,28.27
2024-03-13T14:03:33.368Z,30.97
2024-03-13T14:06:18.448Z,30.45
2024-03-13T14:09:03.915Z,32.03
2024-03-13T14:11:48.942Z,33.87
2024-03-13T14:14:34.302Z,35.17
2024-03-13T14:17:19.101Z,33.07
2024-03-13T14:20:04.947Z,35.90
2024-03-13T14:22:50.027Z,36.90
2024-03-13T14:25:35.316Z,37.72
2024-03-13T14:28:20.333Z,37.70
2024-03-13T14:31:05.253Z,38.47
2024-03-13T14:33:50.303Z,38.10
2024-03-13T14:36:35.504Z,38.60
2024-03-13T14:39:20.921Z,40.50
2024-03-13T14:42:08.295Z,40.53
2024-03-13T14:45:01.257Z,41.30
2024-03-13T14:47:47.567Z,42.70
2024-03-13T14:50:33.025Z,45.37
2024-03-13T14:53:17.964Z,44.00
2024-03-13T14:56:03.068Z,43.57
2024-03-13T14:58:48.044Z,43.20
2024-03-13T15:01:32.949Z,43.92
2024-03-13T15:04:17.904Z,45.00
2024-03-13T15:07:02.799Z,45.73
2024-03-13T15:09:47.784Z,45.77
2024-03-13T15:12:32.721Z,44.87
2024-03-13T15:15:18.741Z,46.83
2024-03-13T15:18:04.076Z,46.60
2024-03-13T15:20:49.156Z,44.77
2024-03-13T15:23:34.150Z,40.33
2024-03-13T15:26:19.203Z,42.57
2024-03-13T15:29:04.505Z,41.93
2024-03-13T15:31:49.367Z,41.53
2024-03-13T15:34:34.265Z,41.30
2024-03-13T15:37:18.993Z,38.87
2024-03-13T15:40:04.314Z,39.57
2024-03-13T15:42:49.420Z,36.42
2024-03-13T15:45:35.143Z,35.63
2024-03-13T15:48:20.422Z,35.03
2024-03-13T15:51:05.530Z,32.57
2024-03-13T15:53:50.751Z,34.80
2024-03-13T15:56:35.929Z,32.87
2024-03-13T15:59:20.817Z,34.00
2024-03-13T16:02:06.033Z,33.67
2024-03-13T16:04:51.161Z,33.73
2024-03-13T16:07:36.374Z,33.90
2024-03-13T16:10:21.312Z,34.40
2024-03-13T16:13:06.429Z,35.57
2024-03-13T16:15:51.251Z,36.50
2024-03-13T16:18:36.334Z,35.50
2024-03-13T16:21:21.715Z,36.60
2024-03-13T16:24:07.019Z,35.17
2024-03-13T16:26:52.400Z,36.13
2024-03-13T16:32:22.183Z,36.93
2024-03-13T16:35:07.253Z,37.37
2024-03-13T16:37:52.512Z,35.33
2024-03-13T16:40:37.508Z,36.40
2024-03-13T16:43:22.335Z,36.10
2024-03-13T16:46:07.491Z,35.20
2024-03-13T16:48:52.713Z,35.90
2024-03-13T16:51:38.589Z,34.80
2024-03-13T16:54:23.461Z,34.97
2024-03-13T16:57:09.103Z,37.03
2024-03-13T16:59:54.237Z,37.47
2024-03-13T17:02:39.096Z,35.87
2024-03-13T17:05:24.180Z,37.50
2024-03-13T17:08:09.384Z,39.43
2024-03-13T17:10:54.252Z,39.40
2024-03-13T17:13:38.970Z,40.77
2024-03-13T17:16:23.856Z,40.93
2024-03-13T17:19:08.650Z,42.20
2024-03-13T17:21:53.599Z,44.40
2024-03-13T17:24:38.647Z,42.03
2024-03-13T17:27:23.589Z,42.40
2024-03-13T17:30:08.786Z,42.93
2024-03-13T17:32:54.122Z,43.50
2024-03-13T17:35:39.241Z,42.63
2024-03-13T17:38:24.069Z,44.10
2024-03-13T17:41:09.413Z,42.70
2024-03-13T17:43:54.461Z,43.97
2024-03-13T17:46:39.447Z,43.17
2024-03-13T17:49:24.431Z,44.33
2024-03-13T17:52:09.264Z,43.73
2024-03-13T17:54:54.792Z,45.17
2024-03-13T17:57:39.615Z,46.70
2024-03-13T18:00:24.580Z,44.73
2024-03-13T18:03:10.054Z,45.73
2024-03-13T18:05:55.501Z,48.23
2024-03-13T18:08:40.990Z,48.43
2024-03-13T18:11:25.851Z,49.00
2024-03-13T18:14:11.515Z,50.00
2024-03-13T18:16:56.741Z,50.60
2024-03-13T18:19:41.669Z,50.37
2024-03-13T18:22:26.633Z,48.20
2024-03-13T18:25:11.603Z,50.43
2024-03-13T18:27:56.530Z,48.90
2024-03-13T18:30:41.310Z,48.17
2024-03-13T18:33:26.370Z,47.60
2024-03-13T18:36:14.788Z,46.70
2024-03-13T18:38:59.761Z,47.83
2024-03-13T18:41:45.128Z,48.57
2024-03-13T18:44:32.261Z,48.30
2024-03-13T18:47:17.577Z,47.10
2024-03-13T18:50:03.480Z,48.80
2024-03-13T18:52:49.102Z,47.87
2024-03-13T18:55:34.442Z,48.47
2024-03-13T18:58:19.322Z,47.83
2024-03-13T19:01:04.433Z,46.13
2024-03-13T19:03:49.498Z,48.30
2024-03-13T19:06:34.708Z,47.10
2024-03-13T19:09:19.858Z,48.33
2024-03-13T19:12:04.873Z,48.60
2024-03-13T19:14:50.259Z,47.20
2024-03-13T19:17:35.274Z,44.43
2024-03-13T19:20:20.363Z,43.73
2024-03-13T19:23:06.150Z,40.20
2024-03-13T19:25:51.411Z,41.17
2024-03-13T19:28:36.585Z,41.27
2024-03-13T19:31:27.160Z,40.13
2024-03-13T19:34:19.845Z,38.50
2024-03-13T19:37:04.912Z,39.63
2024-03-13T19:39:49.798Z,36.67
2024-03-13T19:42:34.629Z,38.17
2024-03-13T19:45:19.631Z,39.53
2024-03-13T19:48:05.584Z,34.78
2024-03-13T19:50:50.817Z,35.53
2024-03-13T19:53:35.768Z,36.23
2024-03-13T19:56:20.759Z,33.53
2024-03-13T19:59:05.791Z,34.07
2024-03-13T20:01:50.662Z,31.30
2024-03-13T20:04:35.563Z,32.97
2024-03-13T20:07:20.591Z,34.27
2024-03-13T20:10:05.802Z,32.53
2024-03-13T20:12:51.276Z,33.50
2024-03-13T20:15:36.500Z,34.00
2024-03-13T20:18:22.031Z,34.65
2024-03-13T20:21:07.532Z,34.90
2024-03-13T20:23:52.456Z,31.97
2024-03-13T20:26:40.635Z,31.77
2024-03-13T20:29:26.001Z,31.67
2024-03-13T20:32:10.801Z,30.63
2024-03-13T20:34:55.774Z,31.07
2024-03-13T20:37:40.925Z,30.57
2024-03-13T20:40:26.039Z,28.25
2024-03-13T20:43:10.817Z,28.42
2024-03-13T20:45:55.655Z,27.47
2024-03-13T20:48:40.380Z,26.55
2024-03-13T20:51:25.917Z,26.00
2024-03-13T20:54:11.235Z,23.90
2024-03-13T20:56:56.351Z,23.57
2024-03-13T20:59:41.247Z,22.77
2024-03-13T21:02:26.267Z,21.10
2024-03-13T21:05:11.152Z,21.17
2024-03-13T21:07:55.963Z,22.67
2024-03-13T21:10:41.281Z,21.40
2024-03-13T21:13:26.237Z,22.57
2024-03-13T21:16:11.201Z,20.80
2024-03-13T21:18:56.090Z,22.00
2024-03-13T21:21:41.496Z,19.83
2024-03-13T21:24:26.456Z,18.30
2024-03-13T21:27:11.406Z,17.77
2024-03-13T21:29:56.331Z,16.87
2024-03-13T21:32:42.390Z,16.07
2024-03-13T21:35:27.520Z,16.70
2024-03-13T21:38:13.018Z,16.13
2024-03-13T21:41:00.154Z,16.57
2024-03-13T21:43:46.084Z,15.87
2024-03-13T21:46:31.420Z,16.43
2024-03-13T21:49:16.451Z,15.97
2024-03-13T21:52:01.335Z,16.57
2024-03-13T21:54:46.240Z,15.70
2024-03-13T21:57:31.063Z,15.73
2024-03-13T22:00:16.771Z,15.93
2024-03-13T22:03:02.173Z,16.37
2024-03-13T22:05:47.180Z,15.30
2024-03-13T22:08:32.422Z,14.77
2024-03-13T22:11:17.887Z,14.57
2024-03-13T22:14:02.944Z,14.83
2024-03-13T22:16:47.945Z,14.47
2024-03-13T22:19:32.752Z,14.50
2024-03-13T22:22:17.864Z,14.90
2024-03-13T22:25:03.062Z,15.47
2024-03-13T22:27:48.377Z,14.80
2024-03-13T22:30:33.786Z,14.60
2024-03-13T22:33:18.853Z,16.57
2024-03-13T22:36:04.836Z,14.18
2024-03-13T22:38:50.230Z,14.20
2024-03-13T22:41:35.142Z,13.03
2024-03-13T22:44:20.069Z,13.33
2024-03-13T22:47:05.951Z,13.07
2024-03-13T22:49:50.866Z,13.10
2024-03-13T22:52:35.737Z,11.93
2024-03-13T22:55:20.587Z,11.80
2024-03-13T22:58:05.631Z,11.40
2024-03-13T23:00:50.507Z,11.10
2024-03-13T23:03:35.665Z,10.77
2024-03-13T23:06:21.122Z,11.63
2024-03-13T23:09:06.361Z,11.43
2024-03-13T23:11:51.753Z,10.87
2024-03-13T23:14:36.732Z,10.57
2024-03-13T23:17:21.696Z,11.53
2024-03-13T23:20:07.707Z,11.07
2024-03-13T23:22:52.779Z,10.90
2024-03-13T23:25:37.807Z,11.27
2024-03-13T23:28:22.661Z,10.67
2024-03-13T23:31:10.927Z,10.80
2024-03-13T23:33:56.288Z,10.10
2024-03-13T23:36:41.457Z,11.23
2024-03-13T23:39:26.480Z,11.47
2024-03-13T23:42:11.430Z,11.23
2024-03-13T23:44:56.278Z,11.87
2024-03-13T23:47:42.429Z,11.97
2024-03-13T23:50:27.291Z,12.23
2024-03-13T23:53:12.389Z,12.40
2024-03-13T23:55:57.510Z,11.53
2024-03-13T23:58:42.688Z,11.83
